sensor_id;sensor_type;location;lat;lon;timestamp;P1;durP1;ratioP1;P2;durP2;ratioP2
68300;SDS011;55146;47.468;18.806;2023-04-01T00:00:17;9.18;;;4.78;;
68300;SDS011;55146;47.468;18.806;2023-04-01T00:02:43;10.93;;;3.97;;
68300;SDS011;55146;47.468;18.806;2023-04-01T00:05:09;8.40;;;4.10;;
68300;SDS011;55146;47.468;18.806;2023-04-01T00:07:35;38.15;;;8.57;;
68300;SDS011;55146;47.468;18.806;2023-04-01T00:10:02;26.00;;;6.83;;
68300;SDS011;55146;47.468;18.806;2023-04-01T00:12:28;18.98;;;5.50;;
68300;SDS011;55146;47.468;18.806;2023-04-01T00:14:53;15.47;;;4.30;;
68300;SDS011;55146;47.468;18.806;2023-04-01T00:17:19;13.60;;;5.60;;
68300;SDS011;55146;47.468;18.806;2023-04-01T00:19:45;13.33;;;4.83;;
68300;SDS011;55146;47.468;18.806;2023-04-01T00:22:10;16.10;;;5.83;;
68300;SDS011;55146;47.468;18.806;2023-04-01T00:24:37;15.63;;;5.80;;
68300;SDS011;55146;47.468;18.806;2023-04-01T00:27:02;11.63;;;4.55;;
68300;SDS011;55146;47.468;18.806;2023-04-01T00:29:28;9.53;;;4.23;;
68300;SDS011;55146;47.468;18.806;2023-04-01T00:31:55;6.62;;;3.67;;
68300;SDS011;55146;47.468;18.806;2023-04-01T00:34:21;6.97;;;3.72;;
68300;SDS011;55146;47.468;18.806;2023-04-01T00:36:47;6.83;;;3.50;;
68300;SDS011;55146;47.468;18.806;2023-04-01T00:39:12;7.23;;;2.20;;
68300;SDS011;55146;47.468;18.806;2023-04-01T00:41:38;6.43;;;3.03;;
68300;SDS011;55146;47.468;18.806;2023-04-01T00:46:52;5.93;;;4.10;;
68300;SDS011;55146;47.468;18.806;2023-04-01T00:49:19;7.43;;;5.43;;
68300;SDS011;55146;47.468;18.806;2023-04-01T00:51:48;6.60;;;4.18;;
68300;SDS011;55146;47.468;18.806;2023-04-01T00:54:16;6.67;;;3.60;;
68300;SDS011;55146;47.468;18.806;2023-04-01T00:56:45;5.40;;;2.85;;
68300;SDS011;55146;47.468;18.806;2023-04-01T00:59:22;5.47;;;2.65;;
68300;SDS011;55146;47.468;18.806;2023-04-01T01:01:52;5.53;;;2.70;;
68300;SDS011;55146;47.468;18.806;2023-04-01T01:04:39;4.90;;;2.80;;
68300;SDS011;55146;47.468;18.806;2023-04-01T01:23:35;6.62;;;3.85;;
68300;SDS011;55146;47.468;18.806;2023-04-01T01:32:16;12.27;;;5.10;;
68300;SDS011;55146;47.468;18.806;2023-04-01T01:37:45;20.67;;;7.80;;
68300;SDS011;55146;47.468;18.806;2023-04-01T01:40:15;20.97;;;9.27;;
68300;SDS011;55146;47.468;18.806;2023-04-01T01:42:42;16.45;;;8.13;;
68300;SDS011;55146;47.468;18.806;2023-04-01T01:45:10;17.62;;;7.25;;
68300;SDS011;55146;47.468;18.806;2023-04-01T01:47:39;17.80;;;8.27;;
68300;SDS011;55146;47.468;18.806;2023-04-01T01:50:06;21.30;;;9.65;;
68300;SDS011;55146;47.468;18.806;2023-04-01T01:52:34;10.60;;;5.90;;
68300;SDS011;55146;47.468;18.806;2023-04-01T01:54:59;8.68;;;4.68;;
68300;SDS011;55146;47.468;18.806;2023-04-01T01:57:29;8.53;;;4.17;;
68300;SDS011;55146;47.468;18.806;2023-04-01T02:00:00;8.05;;;3.85;;
68300;SDS011;55146;47.468;18.806;2023-04-01T02:02:37;6.70;;;3.73;;
68300;SDS011;55146;47.468;18.806;2023-04-01T02:05:08;7.55;;;3.95;;
68300;SDS011;55146;47.468;18.806;2023-04-01T02:07:39;12.70;;;6.15;;
68300;SDS011;55146;47.468;18.806;2023-04-01T02:10:10;12.70;;;5.35;;
68300;SDS011;55146;47.468;18.806;2023-04-01T02:12:35;13.20;;;5.27;;
68300;SDS011;55146;47.468;18.806;2023-04-01T02:15:06;10.82;;;5.72;;
68300;SDS011;55146;47.468;18.806;2023-04-01T02:17:34;11.77;;;4.78;;
68300;SDS011;55146;47.468;18.806;2023-04-01T02:20:06;9.30;;;5.20;;
68300;SDS011;55146;47.468;18.806;2023-04-01T02:22:40;8.67;;;4.70;;
68300;SDS011;55146;47.468;18.806;2023-04-01T02:25:09;7.97;;;3.80;;
68300;SDS011;55146;47.468;18.806;2023-04-01T02:27:38;9.85;;;4.10;;
68300;SDS011;55146;47.468;18.806;2023-04-01T02:30:05;7.07;;;3.72;;
68300;SDS011;55146;47.468;18.806;2023-04-01T02:32:32;6.75;;;3.75;;
68300;SDS011;55146;47.468;18.806;2023-04-01T02:35:02;5.47;;;2.60;;
68300;SDS011;55146;47.468;18.806;2023-04-01T02:37:31;6.62;;;2.97;;
68300;SDS011;55146;47.468;18.806;2023-04-01T02:40:00;6.43;;;3.17;;
68300;SDS011;55146;47.468;18.806;2023-04-01T02:42:28;6.55;;;3.45;;
68300;SDS011;55146;47.468;18.806;2023-04-01T02:44:53;6.47;;;3.27;;
68300;SDS011;55146;47.468;18.806;2023-04-01T02:47:18;6.93;;;4.13;;
68300;SDS011;55146;47.468;18.806;2023-04-01T02:49:44;5.73;;;3.50;;
68300;SDS011;55146;47.468;18.806;2023-04-01T02:52:09;6.33;;;3.73;;
68300;SDS011;55146;47.468;18.806;2023-04-01T02:54:35;6.03;;;3.92;;
68300;SDS011;55146;47.468;18.806;2023-04-01T02:57:00;6.83;;;3.63;;
68300;SDS011;55146;47.468;18.806;2023-04-01T02:59:25;7.60;;;4.03;;
68300;SDS011;55146;47.468;18.806;2023-04-01T03:01:51;8.50;;;4.17;;
68300;SDS011;55146;47.468;18.806;2023-04-01T03:04:16;9.10;;;3.77;;
68300;SDS011;55146;47.468;18.806;2023-04-01T03:06:41;6.00;;;3.30;;
68300;SDS011;55146;47.468;18.806;2023-04-01T03:09:07;13.13;;;3.27;;
68300;SDS011;55146;47.468;18.806;2023-04-01T03:11:32;7.10;;;3.43;;
68300;SDS011;55146;47.468;18.806;2023-04-01T03:13:57;7.57;;;3.55;;
68300;SDS011;55146;47.468;18.806;2023-04-01T03:16:23;7.53;;;3.93;;
68300;SDS011;55146;47.468;18.806;2023-04-01T03:18:48;7.00;;;3.60;;
68300;SDS011;55146;47.468;18.806;2023-04-01T03:21:22;6.37;;;3.12;;
68300;SDS011;55146;47.468;18.806;2023-04-01T03:23:48;5.95;;;3.12;;
68300;SDS011;55146;47.468;18.806;2023-04-01T03:26:14;6.50;;;2.93;;
68300;SDS011;55146;47.468;18.806;2023-04-01T03:28:40;5.45;;;3.00;;
68300;SDS011;55146;47.468;18.806;2023-04-01T03:31:05;6.17;;;3.23;;
68300;SDS011;55146;47.468;18.806;2023-04-01T03:33:31;4.72;;;2.37;;
68300;SDS011;55146;47.468;18.806;2023-04-01T03:35:57;6.73;;;2.23;;
68300;SDS011;55146;47.468;18.806;2023-04-01T03:38:22;5.07;;;2.22;;
68300;SDS011;55146;47.468;18.806;2023-04-01T03:40:48;3.80;;;1.90;;
68300;SDS011;55146;47.468;18.806;2023-04-01T03:43:13;4.97;;;2.50;;
68300;SDS011;55146;47.468;18.806;2023-04-01T03:45:46;5.27;;;2.23;;
68300;SDS011;55146;47.468;18.806;2023-04-01T03:48:12;4.70;;;1.65;;
68300;SDS011;55146;47.468;18.806;2023-04-01T03:50:38;4.97;;;1.90;;
68300;SDS011;55146;47.468;18.806;2023-04-01T03:53:04;4.03;;;1.97;;
68300;SDS011;55146;47.468;18.806;2023-04-01T03:55:29;4.57;;;2.10;;
68300;SDS011;55146;47.468;18.806;2023-04-01T03:57:54;5.47;;;2.50;;
68300;SDS011;55146;47.468;18.806;2023-04-01T04:00:20;5.10;;;1.90;;
68300;SDS011;55146;47.468;18.806;2023-04-01T04:02:45;4.27;;;1.70;;
68300;SDS011;55146;47.468;18.806;2023-04-01T04:05:11;4.03;;;2.10;;
68300;SDS011;55146;47.468;18.806;2023-04-01T04:07:36;4.60;;;2.15;;
68300;SDS011;55146;47.468;18.806;2023-04-01T04:10:02;4.47;;;2.00;;
68300;SDS011;55146;47.468;18.806;2023-04-01T04:12:27;4.62;;;2.05;;
68300;SDS011;55146;47.468;18.806;2023-04-01T04:14:53;4.57;;;2.47;;
68300;SDS011;55146;47.468;18.806;2023-04-01T04:17:18;4.13;;;2.47;;
68300;SDS011;55146;47.468;18.806;2023-04-01T04:19:43;4.10;;;2.50;;
68300;SDS011;55146;47.468;18.806;2023-04-01T04:22:09;5.70;;;2.67;;
68300;SDS011;55146;47.468;18.806;2023-04-01T04:24:35;6.70;;;3.60;;
68300;SDS011;55146;47.468;18.806;2023-04-01T04:27:00;7.70;;;4.00;;
68300;SDS011;55146;47.468;18.806;2023-04-01T04:29:26;6.57;;;3.10;;
68300;SDS011;55146;47.468;18.806;2023-04-01T04:31:52;6.70;;;4.00;;
68300;SDS011;55146;47.468;18.806;2023-04-01T04:34:18;7.43;;;4.45;;
68300;SDS011;55146;47.468;18.806;2023-04-01T04:36:43;8.23;;;4.67;;
68300;SDS011;55146;47.468;18.806;2023-04-01T04:39:09;7.27;;;3.20;;
68300;SDS011;55146;47.468;18.806;2023-04-01T04:41:36;5.45;;;2.58;;
68300;SDS011;55146;47.468;18.806;2023-04-01T04:44:02;6.03;;;3.40;;
68300;SDS011;55146;47.468;18.806;2023-04-01T04:46:28;5.73;;;3.13;;
68300;SDS011;55146;47.468;18.806;2023-04-01T04:48:53;6.10;;;3.17;;
68300;SDS011;55146;47.468;18.806;2023-04-01T04:51:19;5.75;;;3.20;;
68300;SDS011;55146;47.468;18.806;2023-04-01T04:53:46;6.25;;;3.72;;
68300;SDS011;55146;47.468;18.806;2023-04-01T04:56:12;8.00;;;4.00;;
68300;SDS011;55146;47.468;18.806;2023-04-01T04:58:37;6.10;;;4.20;;
68300;SDS011;55146;47.468;18.806;2023-04-01T05:01:07;9.27;;;3.87;;
68300;SDS011;55146;47.468;18.806;2023-04-01T05:03:35;6.25;;;4.00;;
68300;SDS011;55146;47.468;18.806;2023-04-01T05:06:01;5.62;;;3.80;;
68300;SDS011;55146;47.468;18.806;2023-04-01T05:08:27;6.70;;;3.73;;
68300;SDS011;55146;47.468;18.806;2023-04-01T05:10:52;8.48;;;3.50;;
68300;SDS011;55146;47.468;18.806;2023-04-01T05:13:18;7.87;;;3.67;;
68300;SDS011;55146;47.468;18.806;2023-04-01T05:15:43;5.43;;;3.43;;
68300;SDS011;55146;47.468;18.806;2023-04-01T05:18:08;7.20;;;3.40;;
68300;SDS011;55146;47.468;18.806;2023-04-01T05:20:34;8.37;;;3.70;;
68300;SDS011;55146;47.468;18.806;2023-04-01T05:22:59;6.70;;;3.53;;
68300;SDS011;55146;47.468;18.806;2023-04-01T05:25:25;7.65;;;3.35;;
68300;SDS011;55146;47.468;18.806;2023-04-01T05:27:51;6.97;;;3.40;;
68300;SDS011;55146;47.468;18.806;2023-04-01T05:30:16;5.77;;;3.10;;
68300;SDS011;55146;47.468;18.806;2023-04-01T05:32:42;6.23;;;3.30;;
68300;SDS011;55146;47.468;18.806;2023-04-01T05:35:08;7.03;;;3.65;;
68300;SDS011;55146;47.468;18.806;2023-04-01T05:37:35;5.55;;;3.22;;
68300;SDS011;55146;47.468;18.806;2023-04-01T05:40:01;5.72;;;2.80;;
68300;SDS011;55146;47.468;18.806;2023-04-01T05:42:26;4.90;;;2.53;;
68300;SDS011;55146;47.468;18.806;2023-04-01T05:44:52;6.23;;;3.50;;
68300;SDS011;55146;47.468;18.806;2023-04-01T05:47:17;5.17;;;3.17;;
68300;SDS011;55146;47.468;18.806;2023-04-01T05:49:43;4.73;;;2.63;;
68300;SDS011;55146;47.468;18.806;2023-04-01T05:52:08;4.80;;;2.30;;
68300;SDS011;55146;47.468;18.806;2023-04-01T05:54:34;6.13;;;2.47;;
68300;SDS011;55146;47.468;18.806;2023-04-01T05:56:59;5.53;;;2.17;;
68300;SDS011;55146;47.468;18.806;2023-04-01T05:59:24;4.53;;;2.00;;
68300;SDS011;55146;47.468;18.806;2023-04-01T06:01:50;5.33;;;3.03;;
68300;SDS011;55146;47.468;18.806;2023-04-01T06:04:16;4.30;;;2.45;;
68300;SDS011;55146;47.468;18.806;2023-04-01T06:06:43;5.13;;;2.80;;
68300;SDS011;55146;47.468;18.806;2023-04-01T06:37:24;4.82;;;2.90;;
68300;SDS011;55146;47.468;18.806;2023-04-01T06:42:43;14.45;;;6.20;;
68300;SDS011;55146;47.468;18.806;2023-04-01T06:45:34;6.27;;;2.73;;
68300;SDS011;55146;47.468;18.806;2023-04-01T06:48:12;5.45;;;2.55;;
68300;SDS011;55146;47.468;18.806;2023-04-01T06:56:15;5.57;;;2.17;;
68300;SDS011;55146;47.468;18.806;2023-04-01T06:58:48;7.93;;;2.97;;
68300;SDS011;55146;47.468;18.806;2023-04-01T07:01:38;5.45;;;3.05;;
68300;SDS011;55146;47.468;18.806;2023-04-01T07:06:52;6.20;;;3.30;;
68300;SDS011;55146;47.468;18.806;2023-04-01T07:09:42;9.45;;;4.60;;
68300;SDS011;55146;47.468;18.806;2023-04-01T07:12:51;5.90;;;2.30;;
68300;SDS011;55146;47.468;18.806;2023-04-01T07:14:57;5.62;;;2.53;;
68300;SDS011;55146;47.468;18.806;2023-04-01T07:17:31;5.68;;;2.05;;
68300;SDS011;55146;47.468;18.806;2023-04-01T07:20:02;5.75;;;2.80;;
68300;SDS011;55146;47.468;18.806;2023-04-01T07:22:30;5.25;;;2.37;;
68300;SDS011;55146;47.468;18.806;2023-04-01T07:25:05;6.17;;;2.30;;
68300;SDS011;55146;47.468;18.806;2023-04-01T07:27:37;5.70;;;2.60;;
68300;SDS011;55146;47.468;18.806;2023-04-01T07:30:04;4.23;;;2.50;;
68300;SDS011;55146;47.468;18.806;2023-04-01T07:32:42;4.30;;;1.98;;
68300;SDS011;55146;47.468;18.806;2023-04-01T07:38:14;4.12;;;1.90;;
68300;SDS011;55146;47.468;18.806;2023-04-01T07:49:17;11.45;;;3.65;;
68300;SDS011;55146;47.468;18.806;2023-04-01T07:51:56;9.40;;;4.25;;
68300;SDS011;55146;47.468;18.806;2023-04-01T07:57:22;8.63;;;3.60;;
68300;SDS011;55146;47.468;18.806;2023-04-01T07:59:59;6.25;;;2.70;;
68300;SDS011;55146;47.468;18.806;2023-04-01T08:05:18;5.28;;;2.58;;
68300;SDS011;55146;47.468;18.806;2023-04-01T08:08:09;5.72;;;2.37;;
68300;SDS011;55146;47.468;18.806;2023-04-01T08:21:33;7.50;;;2.37;;
68300;SDS011;55146;47.468;18.806;2023-04-01T08:24:11;6.93;;;2.47;;
68300;SDS011;55146;47.468;18.806;2023-04-01T08:26:45;4.87;;;2.65;;
68300;SDS011;55146;47.468;18.806;2023-04-01T08:29:16;5.85;;;2.60;;
68300;SDS011;55146;47.468;18.806;2023-04-01T08:34:39;5.00;;;2.20;;
68300;SDS011;55146;47.468;18.806;2023-04-01T08:37:09;4.80;;;2.10;;
68300;SDS011;55146;47.468;18.806;2023-04-01T08:42:25;3.95;;;1.83;;
68300;SDS011;55146;47.468;18.806;2023-04-01T08:45:13;4.75;;;2.58;;
68300;SDS011;55146;47.468;18.806;2023-04-01T08:47:59;7.85;;;2.30;;
68300;SDS011;55146;47.468;18.806;2023-04-01T08:58:46;6.43;;;2.30;;
68300;SDS011;55146;47.468;18.806;2023-04-01T09:29:16;6.25;;;2.22;;
68300;SDS011;55146;47.468;18.806;2023-04-01T09:35:06;4.37;;;1.98;;
68300;SDS011;55146;47.468;18.806;2023-04-01T09:43:28;4.95;;;1.75;;
68300;SDS011;55146;47.468;18.806;2023-04-01T09:46:19;6.10;;;2.03;;
68300;SDS011;55146;47.468;18.806;2023-04-01T09:57:18;6.32;;;2.15;;
68300;SDS011;55146;47.468;18.806;2023-04-01T10:08:19;7.13;;;2.67;;
68300;SDS011;55146;47.468;18.806;2023-04-01T10:22:04;5.30;;;2.22;;
68300;SDS011;55146;47.468;18.806;2023-04-01T10:31:02;4.53;;;1.63;;
68300;SDS011;55146;47.468;18.806;2023-04-01T10:59:32;5.30;;;1.73;;
68300;SDS011;55146;47.468;18.806;2023-04-01T11:25:11;6.60;;;1.42;;
68300;SDS011;55146;47.468;18.806;2023-04-01T11:30:33;5.70;;;1.50;;
68300;SDS011;55146;47.468;18.806;2023-04-01T11:35:53;3.95;;;1.60;;
68300;SDS011;55146;47.468;18.806;2023-04-01T11:38:46;5.00;;;1.50;;
68300;SDS011;55146;47.468;18.806;2023-04-01T11:44:10;5.15;;;1.27;;
68300;SDS011;55146;47.468;18.806;2023-04-01T11:55:37;5.67;;;1.43;;
68300;SDS011;55146;47.468;18.806;2023-04-01T11:58:16;3.72;;;1.55;;
68300;SDS011;55146;47.468;18.806;2023-04-01T12:11:34;3.87;;;1.75;;
68300;SDS011;55146;47.468;18.806;2023-04-01T12:19:46;3.87;;;1.73;;
68300;SDS011;55146;47.468;18.806;2023-04-01T12:30:35;4.87;;;2.33;;
68300;SDS011;55146;47.468;18.806;2023-04-01T12:38:48;3.53;;;1.52;;
68300;SDS011;55146;47.468;18.806;2023-04-01T12:44:37;4.70;;;1.85;;
68300;SDS011;55146;47.468;18.806;2023-04-01T12:47:21;3.67;;;1.70;;
68300;SDS011;55146;47.468;18.806;2023-04-01T12:49:57;3.00;;;1.60;;
68300;SDS011;55146;47.468;18.806;2023-04-01T12:55:43;3.15;;;1.50;;
68300;SDS011;55146;47.468;18.806;2023-04-01T13:06:26;5.28;;;1.85;;
68300;SDS011;55146;47.468;18.806;2023-04-01T13:12:10;3.42;;;1.90;;
68300;SDS011;55146;47.468;18.806;2023-04-01T13:30:51;4.20;;;1.90;;
68300;SDS011;55146;47.468;18.806;2023-04-01T14:06:16;4.43;;;1.52;;
68300;SDS011;55146;47.468;18.806;2023-04-01T14:39:12;4.27;;;2.27;;
68300;SDS011;55146;47.468;18.806;2023-04-01T14:42:03;5.43;;;1.58;;
68300;SDS011;55146;47.468;18.806;2023-04-01T14:50:06;4.18;;;2.08;;
68300;SDS011;55146;47.468;18.806;2023-04-01T14:52:39;5.20;;;2.10;;
68300;SDS011;55146;47.468;18.806;2023-04-01T14:55:20;7.25;;;2.75;;
68300;SDS011;55146;47.468;18.806;2023-04-01T14:57:59;3.95;;;2.40;;
68300;SDS011;55146;47.468;18.806;2023-04-01T15:00:58;3.80;;;1.95;;
68300;SDS011;55146;47.468;18.806;2023-04-01T15:25:49;5.05;;;1.95;;
68300;SDS011;55146;47.468;18.806;2023-04-01T15:28:30;3.30;;;1.40;;
68300;SDS011;55146;47.468;18.806;2023-04-01T15:36:40;4.47;;;1.40;;
68300;SDS011;55146;47.468;18.806;2023-04-01T15:42:33;3.25;;;1.98;;
68300;SDS011;55146;47.468;18.806;2023-04-01T15:45:26;3.47;;;1.98;;
68300;SDS011;55146;47.468;18.806;2023-04-01T15:48:37;4.50;;;1.60;;
68300;SDS011;55146;47.468;18.806;2023-04-01T16:07:55;3.57;;;1.70;;
68300;SDS011;55146;47.468;18.806;2023-04-01T16:21:10;3.03;;;1.07;;
68300;SDS011;55146;47.468;18.806;2023-04-01T16:26:50;3.60;;;1.87;;
68300;SDS011;55146;47.468;18.806;2023-04-01T16:29:32;3.47;;;1.77;;
68300;SDS011;55146;47.468;18.806;2023-04-01T16:32:49;4.57;;;2.72;;
68300;SDS011;55146;47.468;18.806;2023-04-01T16:38:36;10.95;;;5.78;;
68300;SDS011;55146;47.468;18.806;2023-04-01T16:43:45;19.58;;;10.25;;
68300;SDS011;55146;47.468;18.806;2023-04-01T16:49:00;20.50;;;11.80;;
68300;SDS011;55146;47.468;18.806;2023-04-01T16:51:52;9.57;;;5.35;;
68300;SDS011;55146;47.468;18.806;2023-04-01T16:56:54;13.40;;;7.10;;
68300;SDS011;55146;47.468;18.806;2023-04-01T16:59:29;18.45;;;10.07;;
68300;SDS011;55146;47.468;18.806;2023-04-01T17:02:17;19.00;;;9.73;;
68300;SDS011;55146;47.468;18.806;2023-04-01T17:15:38;6.50;;;3.73;;
68300;SDS011;55146;47.468;18.806;2023-04-01T17:21:06;26.87;;;16.10;;
68300;SDS011;55146;47.468;18.806;2023-04-01T17:23:51;15.15;;;9.40;;
68300;SDS011;55146;47.468;18.806;2023-04-01T17:34:46;5.18;;;3.28;;
68300;SDS011;55146;47.468;18.806;2023-04-01T17:42:24;7.65;;;3.08;;
68300;SDS011;55146;47.468;18.806;2023-04-01T17:45:28;4.68;;;2.50;;
68300;SDS011;55146;47.468;18.806;2023-04-01T17:56:58;7.57;;;3.50;;
68300;SDS011;55146;47.468;18.806;2023-04-01T18:07:58;5.65;;;2.67;;
68300;SDS011;55146;47.468;18.806;2023-04-01T18:23:47;6.37;;;2.33;;
68300;SDS011;55146;47.468;18.806;2023-04-01T18:26:28;4.35;;;2.67;;
68300;SDS011;55146;47.468;18.806;2023-04-01T18:34:40;6.32;;;2.20;;
68300;SDS011;55146;47.468;18.806;2023-04-01T18:45:57;5.70;;;2.35;;
68300;SDS011;55146;47.468;18.806;2023-04-01T18:51:17;7.32;;;3.37;;
68300;SDS011;55146;47.468;18.806;2023-04-01T18:53:57;9.07;;;4.97;;
68300;SDS011;55146;47.468;18.806;2023-04-01T18:56:29;8.17;;;5.43;;
68300;SDS011;55146;47.468;18.806;2023-04-01T19:02:00;11.85;;;6.90;;
68300;SDS011;55146;47.468;18.806;2023-04-01T19:18:25;22.00;;;11.80;;
68300;SDS011;55146;47.468;18.806;2023-04-01T19:40:16;17.80;;;8.75;;
68300;SDS011;55146;47.468;18.806;2023-04-01T19:43:22;13.45;;;6.72;;
68300;SDS011;55146;47.468;18.806;2023-04-01T19:51:37;9.03;;;5.30;;
68300;SDS011;55146;47.468;18.806;2023-04-01T19:54:28;10.10;;;6.53;;
68300;SDS011;55146;47.468;18.806;2023-04-01T20:08:01;8.95;;;4.78;;
68300;SDS011;55146;47.468;18.806;2023-04-01T20:11:21;8.73;;;5.40;;
68300;SDS011;55146;47.468;18.806;2023-04-01T20:19:33;8.93;;;6.00;;
68300;SDS011;55146;47.468;18.806;2023-04-01T20:22:04;9.15;;;5.45;;
68300;SDS011;55146;47.468;18.806;2023-04-01T20:24:41;8.15;;;5.03;;
68300;SDS011;55146;47.468;18.806;2023-04-01T20:35:08;7.55;;;4.68;;
68300;SDS011;55146;47.468;18.806;2023-04-01T20:37:52;11.25;;;5.25;;
68300;SDS011;55146;47.468;18.806;2023-04-01T20:40:52;9.13;;;6.37;;
68300;SDS011;55146;47.468;18.806;2023-04-01T20:48:43;14.33;;;6.93;;
68300;SDS011;55146;47.468;18.806;2023-04-01T20:51:46;13.50;;;7.62;;
68300;SDS011;55146;47.468;18.806;2023-04-01T20:56:54;10.85;;;6.60;;
68300;SDS011;55146;47.468;18.806;2023-04-01T21:08:01;11.20;;;6.00;;
68300;SDS011;55146;47.468;18.806;2023-04-01T21:10:37;10.82;;;6.65;;
68300;SDS011;55146;47.468;18.806;2023-04-01T21:30:15;10.23;;;5.50;;
68300;SDS011;55146;47.468;18.806;2023-04-01T21:41:30;9.73;;;5.35;;
68300;SDS011;55146;47.468;18.806;2023-04-01T21:44:13;7.13;;;4.83;;
68300;SDS011;55146;47.468;18.806;2023-04-01T21:50:23;9.07;;;5.47;;
68300;SDS011;55146;47.468;18.806;2023-04-01T21:58:45;7.13;;;3.87;;
68300;SDS011;55146;47.468;18.806;2023-04-01T22:06:55;9.27;;;4.60;;
68300;SDS011;55146;47.468;18.806;2023-04-01T22:09:38;8.02;;;5.03;;
68300;SDS011;55146;47.468;18.806;2023-04-01T22:12:14;8.40;;;5.17;;
68300;SDS011;55146;47.468;18.806;2023-04-01T22:23:12;6.53;;;4.12;;
68300;SDS011;55146;47.468;18.806;2023-04-01T22:28:44;7.85;;;3.97;;
68300;SDS011;55146;47.468;18.806;2023-04-01T22:31:18;9.55;;;4.72;;
68300;SDS011;55146;47.468;18.806;2023-04-01T22:34:03;8.10;;;4.40;;
68300;SDS011;55146;47.468;18.806;2023-04-01T22:39:13;10.40;;;4.80;;
68300;SDS011;55146;47.468;18.806;2023-04-01T22:50:22;11.47;;;6.50;;
68300;SDS011;55146;47.468;18.806;2023-04-01T22:52:59;15.77;;;7.25;;
68300;SDS011;55146;47.468;18.806;2023-04-01T22:55:31;9.95;;;6.03;;
68300;SDS011;55146;47.468;18.806;2023-04-01T22:58:03;10.68;;;6.12;;
68300;SDS011;55146;47.468;18.806;2023-04-01T23:00:35;12.27;;;6.53;;
68300;SDS011;55146;47.468;18.806;2023-04-01T23:05:41;11.85;;;5.10;;
68300;SDS011;55146;47.468;18.806;2023-04-01T23:11:04;6.47;;;3.50;;
68300;SDS011;55146;47.468;18.806;2023-04-01T23:13:36;7.37;;;4.20;;
68300;SDS011;55146;47.468;18.806;2023-04-01T23:16:06;5.40;;;3.13;;
68300;SDS011;55146;47.468;18.806;2023-04-01T23:29:38;4.10;;;2.70;;
68300;SDS011;55146;47.468;18.806;2023-04-01T23:32:17;3.95;;;2.22;;
68300;SDS011;55146;47.468;18.806;2023-04-01T23:34:48;4.35;;;2.42;;
68300;SDS011;55146;47.468;18.806;2023-04-01T23:37:16;5.50;;;2.70;;
68300;SDS011;55146;47.468;18.806;2023-04-01T23:39:48;5.12;;;2.80;;
68300;SDS011;55146;47.468;18.806;2023-04-01T23:42:20;4.20;;;2.93;;
68300;SDS011;55146;47.468;18.806;2023-04-01T23:44:56;5.37;;;2.33;;
68300;SDS011;55146;47.468;18.806;2023-04-01T23:47:34;4.30;;;2.42;;
68300;SDS011;55146;47.468;18.806;2023-04-01T23:50:07;3.92;;;2.28;;
68300;SDS011;55146;47.468;18.806;2023-04-01T23:52:48;5.18;;;2.33;;
68300;SDS011;55146;47.468;18.806;2023-04-01T23:55:33;6.03;;;3.27;;
